createdAt,value
2023-03-08T00:05:01.981Z,97900.14
2023-03-08T00:10:05.587Z,97904.31
2023-03-08T00:15:08.534Z,97915.58
2023-03-08T00:20:13.880Z,97918.89
2023-03-08T00:25:16.623Z,97920.46
2023-03-08T00:30:19.402Z,97928.73
2023-03-08T00:35:22.123Z,97936.36
2023-03-08T00:40:25.196Z,97937.79
2023-03-08T00:45:27.853Z,97939.95
2023-03-08T00:50:30.826Z,97945.80
2023-03-08T00:55:33.910Z,97946.31
2023-03-08T01:00:36.654Z,97947.12
2023-03-08T01:05:41.283Z,97943.07
2023-03-08T01:10:57.613Z,97941.38
2023-03-08T01:16:01.384Z,97932.35
2023-03-08T01:21:04.909Z,97930.27
2023-03-08T01:26:16.532Z,97928.27
2023-03-08T01:31:25.403Z,97929.13
2023-03-08T01:36:28.634Z,97930.33
2023-03-08T01:41:32.037Z,97934.89
2023-03-08T01:46:36.606Z,97927.72
2023-03-08T01:52:10.168Z,97926.70
2023-03-08T01:57:17.246Z,97922.94
2023-03-08T02:02:26.039Z,97923.35
2023-03-08T02:07:30.051Z,97921.55
2023-03-08T02:12:34.364Z,97921.22
2023-03-08T02:17:39.667Z,97927.30
2023-03-08T02:22:44.277Z,97939.69
2023-03-08T02:27:48.002Z,97939.42
2023-03-08T02:32:51.217Z,97952.66
2023-03-08T02:37:53.850Z,97966.23
2023-03-08T02:42:56.715Z,97979.47
2023-03-08T02:48:00.325Z,97988.38
2023-03-08T02:53:04.673Z,97992.56
2023-03-08T02:58:09.288Z,97991.71
2023-03-08T03:03:12.224Z,97997.58
2023-03-08T03:08:15.126Z,98005.16
2023-03-08T03:13:17.861Z,98014.52
2023-03-08T03:18:20.500Z,98010.92
2023-03-08T03:23:23.150Z,98013.67
2023-03-08T03:28:25.912Z,98014.39
2023-03-08T03:33:28.615Z,98014.98
2023-03-08T03:38:31.800Z,98018.48
2023-03-08T03:43:34.729Z,98027.80
2023-03-08T03:48:38.326Z,98031.05
2023-03-08T03:53:41.545Z,98041.54
2023-03-08T03:58:44.789Z,98046.52
2023-03-08T04:03:53.192Z,98045.77
2023-03-08T04:09:00.946Z,98049.64
2023-03-08T04:14:04.867Z,98055.16
2023-03-08T04:19:12.167Z,98058.48
2023-03-08T04:24:14.962Z,98055.10
2023-03-08T04:29:17.763Z,98060.73
2023-03-08T04:34:20.563Z,98063.64
2023-03-08T04:39:23.223Z,98070.73
2023-03-08T04:44:25.953Z,98074.00
2023-03-08T04:49:28.653Z,98078.52
2023-03-08T04:54:31.456Z,98080.27
2023-03-08T04:59:34.160Z,98084.79
2023-03-08T05:04:36.993Z,98088.80
2023-03-08T05:09:39.978Z,98092.71
2023-03-08T05:14:42.650Z,98102.83
2023-03-08T05:19:45.368Z,98095.16
2023-03-08T05:24:48.474Z,98102.58
2023-03-08T05:29:54.240Z,98104.05
2023-03-08T05:34:56.935Z,98107.97
2023-03-08T05:39:59.860Z,98110.23
2023-03-08T05:45:02.612Z,98116.83
2023-03-08T05:50:06.085Z,98124.28
2023-03-08T05:55:09.129Z,98127.95
2023-03-08T06:00:12.976Z,98136.27
2023-03-08T06:05:15.790Z,98150.94
2023-03-08T06:10:18.606Z,98159.11
2023-03-08T06:15:21.497Z,98165.98
2023-03-08T06:20:24.236Z,98176.73
2023-03-08T06:25:26.957Z,98185.64
2023-03-08T06:30:29.808Z,98192.05
2023-03-08T06:35:32.535Z,98202.50
2023-03-08T06:40:35.301Z,98208.51
2023-03-08T06:45:39.677Z,98220.17
2023-03-08T06:50:49.212Z,98223.77
2023-03-08T06:55:53.761Z,98228.69
2023-03-08T07:00:56.858Z,98237.22
2023-03-08T07:06:00.962Z,98243.33
2023-03-08T07:11:05.422Z,98253.27
2023-03-08T07:16:10.756Z,98258.52
2023-03-08T07:21:13.504Z,98270.32
2023-03-08T07:26:16.202Z,98275.92
2023-03-08T07:31:19.005Z,98288.54
2023-03-08T07:36:21.735Z,98297.88
2023-03-08T07:41:24.737Z,98302.07
2023-03-08T07:46:28.289Z,98314.95
2023-03-08T07:51:31.069Z,98325.13
2023-03-08T07:56:33.820Z,98326.90
2023-03-08T08:01:36.614Z,98333.86
2023-03-08T08:06:40.959Z,98346.54
2023-03-08T08:11:43.848Z,98350.19
2023-03-08T08:16:46.660Z,98359.63
2023-03-08T08:21:49.442Z,98362.80
2023-03-08T08:26:52.264Z,98370.23
2023-03-08T08:31:56.376Z,98379.92
2023-03-08T08:36:59.179Z,98382.08
2023-03-08T08:42:02.199Z,98382.88
2023-03-08T08:47:06.026Z,98390.77
2023-03-08T08:52:09.282Z,98397.67
2023-03-08T08:57:12.156Z,98400.60
2023-03-08T09:02:15.146Z,98408.67
2023-03-08T09:07:19.524Z,98406.00
2023-03-08T09:12:22.754Z,98409.71
2023-03-08T09:17:26.636Z,98417.26
2023-03-08T09:22:30.075Z,98424.27
2023-03-08T09:27:33.120Z,98428.52
2023-03-08T09:32:36.349Z,98426.81
2023-03-08T09:37:39.149Z,98424.30
2023-03-08T09:42:45.908Z,98435.61
2023-03-08T09:48:05.196Z,98433.05
2023-03-08T09:53:16.428Z,98437.45
2023-03-08T09:58:43.865Z,98440.46
2023-03-08T10:04:08.033Z,98437.39
2023-03-08T10:09:26.008Z,98444.91
2023-03-08T10:14:37.225Z,98453.62
2023-03-08T10:20:04.497Z,98449.85
2023-03-08T10:25:32.903Z,98446.20
2023-03-08T10:30:45.472Z,98451.89
2023-03-08T10:36:02.255Z,98454.98
2023-03-08T10:41:15.960Z,98469.81
2023-03-08T10:46:21.372Z,98470.98
2023-03-08T10:51:29.163Z,98474.27
2023-03-08T10:56:45.439Z,98475.71
2023-03-08T11:01:54.756Z,98478.86
2023-03-08T11:06:59.048Z,98488.94
2023-03-08T11:12:01.881Z,98489.36
2023-03-08T11:17:17.372Z,98492.05
2023-03-08T11:22:25.818Z,98491.91
2023-03-08T11:27:41.004Z,98491.52
2023-03-08T11:32:57.892Z,98495.58
2023-03-08T11:38:18.830Z,98495.67
2023-03-08T11:43:46.448Z,98498.08
2023-03-08T11:49:34.243Z,98492.24
2023-03-08T11:54:59.876Z,98502.55
2023-03-08T12:00:23.749Z,98503.22
2023-03-08T12:05:30.873Z,98504.77
2023-03-08T12:10:56.807Z,98505.28
2023-03-08T12:16:15.552Z,98513.28
2023-03-08T12:21:51.206Z,98507.36
2023-03-08T12:27:08.812Z,98516.83
2023-03-08T12:32:14.396Z,98521.40
2023-03-08T12:37:29.048Z,98527.74
2023-03-08T12:42:39.019Z,98526.59
2023-03-08T12:47:42.115Z,98525.14
2023-03-08T12:52:45.011Z,98527.19
2023-03-08T12:57:52.694Z,98533.44
2023-03-08T13:03:01.328Z,98533.25
2023-03-08T13:08:13.646Z,98530.58
2023-03-08T13:13:38.316Z,98527.64
2023-03-08T13:18:48.896Z,98528.12
2023-03-08T13:24:06.515Z,98523.80
2023-03-08T13:29:16.003Z,98524.30
2023-03-08T13:34:31.278Z,98526.35
2023-03-08T13:39:34.318Z,98530.36
2023-03-08T13:44:38.152Z,98524.65
2023-03-08T13:49:44.506Z,98528.58
2023-03-08T13:54:51.726Z,98528.11
2023-03-08T14:00:00.573Z,98523.19
2023-03-08T14:05:15.724Z,98520.60
2023-03-08T14:10:18.646Z,98517.61
2023-03-08T14:15:22.302Z,98506.10
2023-03-08T14:20:25.728Z,98507.73
2023-03-08T14:25:32.140Z,98513.91
2023-03-08T14:30:34.812Z,98516.02
2023-03-08T14:35:41.401Z,98517.16
2023-03-08T14:40:49.552Z,98521.65
2023-03-08T14:45:55.896Z,98519.67
2023-03-08T14:51:04.534Z,98517.58
2023-03-08T14:56:16.986Z,98504.85
2023-03-08T15:01:31.925Z,98502.96
2023-03-08T15:06:38.622Z,98505.49
2023-03-08T15:11:41.918Z,98505.46
2023-03-08T15:16:44.612Z,98506.70
2023-03-08T15:21:48.282Z,98507.27
2023-03-08T15:26:52.856Z,98509.13
2023-03-08T15:31:57.022Z,98504.65
2023-03-08T15:36:59.709Z,98501.98
2023-03-08T15:42:02.470Z,98500.48
2023-03-08T15:47:05.449Z,98503.85
2023-03-08T15:52:11.581Z,98506.33
2023-03-08T15:57:14.298Z,98507.26
2023-03-08T16:02:19.554Z,98513.73
2023-03-08T16:07:22.413Z,98517.17
2023-03-08T16:12:25.584Z,98517.64
2023-03-08T16:17:30.687Z,98514.30
2023-03-08T16:22:34.519Z,98521.67
2023-03-08T16:27:38.354Z,98521.45
2023-03-08T16:32:41.267Z,98528.14
2023-03-08T16:37:44.047Z,98528.97
2023-03-08T16:42:48.380Z,98524.61
2023-03-08T16:47:51.046Z,98528.30
2023-03-08T16:52:54.943Z,98531.56
2023-03-08T16:57:57.704Z,98536.77
2023-03-08T17:03:00.779Z,98538.78
2023-03-08T17:08:03.508Z,98540.52
2023-03-08T17:13:06.311Z,98543.80
2023-03-08T17:18:09.937Z,98539.70
2023-03-08T17:23:12.711Z,98538.81
2023-03-08T17:28:16.139Z,98538.03
2023-03-08T17:33:19.038Z,98540.73
2023-03-08T17:38:22.643Z,98541.18
2023-03-08T17:43:25.365Z,98539.70
2023-03-08T17:48:28.692Z,98533.25
2023-03-08T17:53:32.396Z,98534.27
2023-03-08T17:58:36.119Z,98528.48
2023-03-08T18:03:39.457Z,98524.58
2023-03-08T18:08:42.139Z,98521.90
2023-03-08T18:13:44.840Z,98519.42
2023-03-08T18:18:50.012Z,98516.61
2023-03-08T18:23:56.182Z,98515.33
2023-03-08T18:28:58.939Z,98515.35
2023-03-08T18:34:02.186Z,98517.11
2023-03-08T18:39:06.852Z,98513.88
2023-03-08T18:44:12.402Z,98512.04
2023-03-08T18:49:15.893Z,98502.57
2023-03-08T18:54:20.790Z,98504.62
2023-03-08T18:59:23.528Z,98498.20
2023-03-08T19:04:26.386Z,98493.18
2023-03-08T19:09:29.088Z,98490.44
2023-03-08T19:14:31.795Z,98482.27
2023-03-08T19:19:34.453Z,98476.08
2023-03-08T19:24:37.259Z,98475.80
2023-03-08T19:29:40.076Z,98471.46
2023-03-08T19:34:44.725Z,98471.81
2023-03-08T19:39:47.823Z,98474.21
2023-03-08T19:44:52.704Z,98475.58
2023-03-08T19:49:55.471Z,98474.75
2023-03-08T19:54:59.008Z,98477.93
2023-03-08T20:00:02.066Z,98477.64
2023-03-08T20:05:05.286Z,98480.65
2023-03-08T20:10:16.462Z,98482.52
2023-03-08T20:15:19.324Z,98486.48
2023-03-08T20:20:23.031Z,98482.79
2023-03-08T20:25:25.834Z,98484.75
2023-03-08T20:30:29.280Z,98482.27
2023-03-08T20:35:32.059Z,98484.45
2023-03-08T20:40:34.932Z,98483.09
2023-03-08T20:45:39.675Z,98483.05
2023-03-08T20:50:42.499Z,98480.89
2023-03-08T20:55:45.152Z,98478.44
2023-03-08T21:00:47.888Z,98480.22
2023-03-08T21:05:50.807Z,98480.59
2023-03-08T21:10:57.701Z,98481.34
2023-03-08T21:16:02.721Z,98479.02
2023-03-08T21:21:05.962Z,98475.12
2023-03-08T21:26:08.620Z,98474.17
2023-03-08T21:31:11.462Z,98476.67
2023-03-08T21:36:14.314Z,98477.32
2023-03-08T21:41:18.980Z,98470.15
2023-03-08T21:46:22.111Z,98469.73
2023-03-08T21:51:25.091Z,98468.16
2023-03-08T21:56:27.943Z,98460.95
2023-03-08T22:01:31.820Z,98459.42
2023-03-08T22:06:34.596Z,98458.25
2023-03-08T22:11:37.449Z,98461.51
2023-03-08T22:16:40.433Z,98459.05
2023-03-08T22:21:43.367Z,98462.39
2023-03-08T22:26:46.060Z,98460.48
2023-03-08T22:31:48.848Z,98463.20
2023-03-08T22:36:51.659Z,98469.91
2023-03-08T22:41:54.547Z,98473.27
2023-03-08T22:46:57.465Z,98470.32
2023-03-08T22:52:00.209Z,98470.30
2023-03-08T22:57:03.590Z,98468.97
2023-03-08T23:02:07.288Z,98474.50
2023-03-08T23:07:10.107Z,98478.07
2023-03-08T23:12:12.787Z,98474.89
2023-03-08T23:17:15.588Z,98476.17
2023-03-08T23:22:18.609Z,98477.71
2023-03-08T23:27:21.719Z,98477.74
2023-03-08T23:32:24.560Z,98484.89
2023-03-08T23:37:47.193Z,98485.64
2023-03-08T23:42:49.875Z,98485.73
2023-03-08T23:47:52.599Z,98483.77
2023-03-08T23:52:55.315Z,98484.95
2023-03-08T23:57:58.005Z,98485.67
